createdAt,value
2022-12-06T00:01:10.891Z,4.54
2022-12-06T00:03:38.978Z,4.46
2022-12-06T00:06:09.541Z,4.47
2022-12-06T00:08:36.854Z,4.44
2022-12-06T00:11:10.251Z,4.46
2022-12-06T00:13:37.265Z,4.44
2022-12-06T00:16:06.239Z,4.51
2022-12-06T00:18:34.447Z,4.42
2022-12-06T00:21:12.608Z,4.40
2022-12-06T00:23:41.766Z,4.43
2022-12-06T00:26:08.842Z,4.46
2022-12-06T00:28:37.334Z,4.50
2022-12-06T00:31:08.876Z,4.46
2022-12-06T00:33:37.167Z,4.43
2022-12-06T00:36:11.367Z,4.50
2022-12-06T00:38:38.570Z,4.49
2022-12-06T00:41:16.425Z,4.42
2022-12-06T00:43:43.831Z,4.41
2022-12-06T00:46:17.236Z,4.39
2022-12-06T00:48:45.523Z,4.48
2022-12-06T00:51:13.667Z,4.41
2022-12-06T00:53:40.805Z,4.40
2022-12-06T00:56:07.724Z,4.37
2022-12-06T00:58:35.149Z,4.38
2022-12-06T01:01:12.811Z,4.48
2022-12-06T01:03:41.318Z,4.46
2022-12-06T01:06:14.607Z,4.40
2022-12-06T01:08:43.074Z,4.43
2022-12-06T01:11:11.175Z,4.37
2022-12-06T01:13:38.023Z,4.33
2022-12-06T01:16:09.467Z,4.38
2022-12-06T01:18:36.894Z,4.37
2022-12-06T01:21:12.417Z,4.28
2022-12-06T01:23:39.021Z,4.31
2022-12-06T01:26:07.100Z,4.36
2022-12-06T01:28:35.752Z,4.33
2022-12-06T01:31:07.199Z,4.29
2022-12-06T01:33:34.348Z,4.30
2022-12-06T01:36:01.265Z,4.29
2022-12-06T01:38:27.712Z,4.29
2022-12-06T01:41:14.653Z,4.31
2022-12-06T01:44:01.286Z,4.22
2022-12-06T01:46:48.037Z,4.20
2022-12-06T01:49:35.384Z,4.16
2022-12-06T01:52:27.164Z,4.18
2022-12-06T01:55:15.682Z,4.20
2022-12-06T01:57:42.770Z,4.30
2022-12-06T02:00:09.606Z,4.33
2022-12-06T02:02:39.188Z,4.40
2022-12-06T02:05:07.550Z,4.28
2022-12-06T02:07:34.698Z,4.26
2022-12-06T02:10:02.644Z,4.20
2022-12-06T02:12:29.404Z,4.26
2022-12-06T02:14:56.718Z,4.19
2022-12-06T02:17:48.043Z,4.16
2022-12-06T02:20:36.690Z,4.19
2022-12-06T02:23:40.986Z,4.28
2022-12-06T02:26:30.506Z,4.30
2022-12-06T02:29:00.117Z,4.20
2022-12-06T02:31:58.210Z,4.21
2022-12-06T02:34:51.192Z,4.23
2022-12-06T02:37:25.606Z,4.36
2022-12-06T02:39:59.914Z,4.38
2022-12-06T02:42:36.778Z,4.37
2022-12-06T02:45:19.597Z,4.38
2022-12-06T02:47:48.104Z,4.39
2022-12-06T02:50:22.735Z,4.22
2022-12-06T02:52:53.418Z,4.22
2022-12-06T02:55:23.562Z,4.23
2022-12-06T02:57:53.192Z,4.20
2022-12-06T03:00:38.620Z,4.21
2022-12-06T03:03:15.568Z,4.29
2022-12-06T03:06:05.406Z,4.26
2022-12-06T03:08:41.441Z,4.16
2022-12-06T03:11:08.255Z,4.19
2022-12-06T03:13:49.334Z,4.16
2022-12-06T03:16:26.561Z,4.22
2022-12-06T03:19:07.179Z,4.17
2022-12-06T03:21:39.054Z,4.22
2022-12-06T03:24:10.291Z,4.34
2022-12-06T03:26:38.518Z,4.25
2022-12-06T03:29:09.303Z,4.24
2022-12-06T03:31:38.374Z,4.22
2022-12-06T03:34:21.516Z,4.22
2022-12-06T03:36:50.403Z,4.24
2022-12-06T03:39:25.782Z,4.19
2022-12-06T03:41:56.937Z,4.16
2022-12-06T03:44:24.910Z,4.16
2022-12-06T03:46:58.935Z,4.21
2022-12-06T03:49:36.262Z,4.24
2022-12-06T03:52:03.964Z,4.21
2022-12-06T03:54:31.036Z,4.17
2022-12-06T03:56:57.593Z,4.18
2022-12-06T03:59:24.235Z,4.22
2022-12-06T04:01:50.779Z,4.19
2022-12-06T04:04:17.524Z,4.15
2022-12-06T04:06:44.615Z,4.22
2022-12-06T04:09:29.868Z,4.12
2022-12-06T04:11:56.563Z,4.02
2022-12-06T04:14:22.910Z,4.10
2022-12-06T04:17:08.538Z,4.08
2022-12-06T04:19:35.000Z,3.99
2022-12-06T04:22:20.768Z,3.96
2022-12-06T04:24:47.176Z,4.07
2022-12-06T04:27:32.861Z,4.06
2022-12-06T04:30:17.899Z,4.05
2022-12-06T04:33:03.177Z,4.11
2022-12-06T04:35:48.569Z,4.00
2022-12-06T04:38:34.179Z,3.92
2022-12-06T04:41:00.792Z,3.95
2022-12-06T04:43:42.628Z,3.90
2022-12-06T04:46:11.542Z,3.93
2022-12-06T04:48:39.401Z,3.97
2022-12-06T04:51:06.487Z,4.06
2022-12-06T04:53:33.908Z,4.16
2022-12-06T04:56:02.010Z,4.16
2022-12-06T04:58:28.509Z,4.15
2022-12-06T05:00:55.849Z,4.10
2022-12-06T05:03:22.647Z,4.06
2022-12-06T05:05:50.170Z,4.01
2022-12-06T05:08:16.774Z,3.99
2022-12-06T05:10:48.404Z,3.99
2022-12-06T05:13:16.270Z,3.99
2022-12-06T05:15:51.591Z,4.03
2022-12-06T05:18:18.788Z,3.98
2022-12-06T05:20:45.786Z,3.99
2022-12-06T05:23:12.423Z,3.97
2022-12-06T05:25:39.092Z,3.98
2022-12-06T05:28:06.116Z,3.93
2022-12-06T05:30:32.670Z,3.96
2022-12-06T05:32:59.306Z,3.92
2022-12-06T05:35:25.827Z,3.91
2022-12-06T05:37:52.552Z,3.87
2022-12-06T05:40:18.994Z,3.97
2022-12-06T05:42:45.822Z,3.96
2022-12-06T05:45:12.326Z,4.01
2022-12-06T05:47:39.752Z,4.05
2022-12-06T05:50:06.937Z,4.08
2022-12-06T05:52:33.376Z,3.98
2022-12-06T05:55:00.060Z,3.96
2022-12-06T05:57:27.074Z,4.03
2022-12-06T05:59:53.581Z,3.98
2022-12-06T06:02:20.321Z,4.03
2022-12-06T06:04:47.031Z,3.99
2022-12-06T06:07:13.523Z,4.02
2022-12-06T06:09:40.035Z,4.01
2022-12-06T06:12:12.127Z,3.99
2022-12-06T06:14:39.720Z,3.96
2022-12-06T06:17:06.888Z,4.05
2022-12-06T06:19:33.620Z,4.02
2022-12-06T06:22:00.656Z,3.81
2022-12-06T06:24:27.416Z,3.94
2022-12-06T06:26:54.091Z,4.01
2022-12-06T06:29:20.596Z,3.91
2022-12-06T06:31:47.691Z,3.86
2022-12-06T06:34:14.270Z,3.90
2022-12-06T06:36:45.522Z,3.84
2022-12-06T06:39:12.908Z,3.93
2022-12-06T06:41:39.597Z,3.73
2022-12-06T06:44:06.008Z,3.87
2022-12-06T06:46:32.574Z,3.98
2022-12-06T06:48:59.025Z,3.72
2022-12-06T06:51:25.645Z,3.83
2022-12-06T06:53:52.004Z,3.92
2022-12-06T06:56:20.291Z,3.94
2022-12-06T06:58:47.010Z,3.85
2022-12-06T07:01:23.566Z,3.86
2022-12-06T07:03:51.813Z,3.95
2022-12-06T07:06:18.760Z,3.76
2022-12-06T07:08:46.504Z,3.70
2022-12-06T07:11:14.818Z,3.72
2022-12-06T07:13:46.883Z,3.64
2022-12-06T07:16:18.139Z,3.72
2022-12-06T07:18:45.090Z,3.65
2022-12-06T07:21:13.946Z,3.84
2022-12-06T07:23:41.111Z,3.81
2022-12-06T07:26:12.687Z,3.92
2022-12-06T07:28:41.563Z,3.84
2022-12-06T07:31:26.294Z,3.78
2022-12-06T07:33:58.478Z,3.75
2022-12-06T07:36:26.416Z,3.81
2022-12-06T07:38:55.658Z,3.65
2022-12-06T07:41:43.303Z,3.64
2022-12-06T07:44:50.657Z,3.53
2022-12-06T07:47:17.629Z,3.48
2022-12-06T07:49:44.332Z,3.52
2022-12-06T07:52:11.351Z,3.47
2022-12-06T07:54:38.146Z,3.54
2022-12-06T07:57:04.877Z,3.44
2022-12-06T07:59:31.782Z,3.44
2022-12-06T08:01:58.285Z,3.48
2022-12-06T08:04:25.045Z,3.52
2022-12-06T08:06:52.083Z,3.61
2022-12-06T08:09:18.986Z,3.59
2022-12-06T08:11:46.559Z,3.54
2022-12-06T08:14:13.120Z,3.54
2022-12-06T08:16:41.075Z,3.54
2022-12-06T08:19:08.969Z,3.51
2022-12-06T08:21:35.589Z,3.55
2022-12-06T08:24:04.041Z,3.61
2022-12-06T08:26:30.777Z,3.69
2022-12-06T08:29:00.786Z,3.70
2022-12-06T08:31:27.904Z,3.73
2022-12-06T08:33:54.358Z,3.69
2022-12-06T08:36:22.917Z,3.82
2022-12-06T08:38:50.878Z,3.87
2022-12-06T08:41:37.473Z,3.97
2022-12-06T08:44:04.625Z,3.92
2022-12-06T08:46:33.949Z,4.01
2022-12-06T08:49:01.542Z,3.99
2022-12-06T08:51:29.331Z,3.94
2022-12-06T08:53:57.132Z,3.89
2022-12-06T08:56:27.753Z,4.04
2022-12-06T08:58:55.812Z,3.97
2022-12-06T09:01:26.502Z,4.08
2022-12-06T09:03:53.554Z,4.13
2022-12-06T09:06:21.113Z,4.07
2022-12-06T09:08:48.463Z,4.13
2022-12-06T09:11:15.851Z,4.22
2022-12-06T09:13:43.995Z,4.07
2022-12-06T09:16:16.957Z,4.19
2022-12-06T09:18:44.817Z,4.14
2022-12-06T09:21:16.092Z,4.20
2022-12-06T09:23:43.134Z,4.26
2022-12-06T09:26:10.186Z,4.29
2022-12-06T09:28:39.020Z,4.29
2022-12-06T09:31:08.313Z,4.28
2022-12-06T09:33:36.209Z,4.12
2022-12-06T09:36:18.568Z,4.26
2022-12-06T09:38:47.310Z,4.19
2022-12-06T09:41:32.671Z,4.22
2022-12-06T09:44:17.250Z,4.17
2022-12-06T09:47:09.104Z,4.11
2022-12-06T09:49:55.174Z,4.24
2022-12-06T09:52:35.340Z,4.28
2022-12-06T09:55:26.468Z,4.26
2022-12-06T09:57:59.737Z,4.22
2022-12-06T10:00:34.095Z,4.32
2022-12-06T10:03:13.253Z,4.37
2022-12-06T10:06:18.214Z,4.29
2022-12-06T10:09:04.524Z,4.19
2022-12-06T10:11:43.568Z,4.06
2022-12-06T10:14:31.572Z,4.00
2022-12-06T10:17:28.756Z,3.73
2022-12-06T10:20:23.752Z,4.04
2022-12-06T10:23:24.225Z,4.01
2022-12-06T10:25:54.127Z,4.09
2022-12-06T10:28:44.476Z,4.19
2022-12-06T10:31:23.097Z,4.22
2022-12-06T10:34:01.032Z,4.24
2022-12-06T10:36:45.178Z,4.33
2022-12-06T10:39:33.088Z,4.23
2022-12-06T10:42:12.955Z,4.31
2022-12-06T10:44:46.197Z,4.33
2022-12-06T10:47:27.666Z,4.39
2022-12-06T10:50:26.168Z,4.43
2022-12-06T10:53:10.773Z,4.51
2022-12-06T10:55:52.078Z,4.53
2022-12-06T10:58:32.774Z,4.44
2022-12-06T11:01:04.999Z,4.50
2022-12-06T11:03:39.473Z,4.48
2022-12-06T11:06:30.512Z,4.51
2022-12-06T11:09:31.837Z,4.51
2022-12-06T11:11:58.681Z,4.58
2022-12-06T11:14:43.377Z,4.45
2022-12-06T11:17:34.123Z,4.58
2022-12-06T11:20:16.007Z,4.65
2022-12-06T11:23:07.117Z,4.67
2022-12-06T11:25:46.383Z,4.64
2022-12-06T11:28:35.620Z,4.66
2022-12-06T11:31:17.868Z,4.66
2022-12-06T11:33:46.250Z,4.73
2022-12-06T11:36:13.547Z,4.64
2022-12-06T11:38:42.637Z,4.75
2022-12-06T11:41:14.487Z,4.80
2022-12-06T11:43:41.488Z,4.66
2022-12-06T11:46:13.335Z,4.65
2022-12-06T11:48:40.092Z,4.80
2022-12-06T11:51:16.400Z,4.82
2022-12-06T11:53:56.344Z,4.74
2022-12-06T11:56:32.400Z,4.82
2022-12-06T11:59:24.881Z,4.69
2022-12-06T12:01:54.474Z,4.80
2022-12-06T12:04:35.689Z,4.81
2022-12-06T12:07:08.737Z,4.65
2022-12-06T12:10:00.562Z,4.78
2022-12-06T12:12:59.243Z,4.83
2022-12-06T12:15:27.632Z,4.82
2022-12-06T12:17:57.305Z,4.93
2022-12-06T12:20:46.258Z,4.94
2022-12-06T12:23:27.693Z,4.92
2022-12-06T12:26:21.203Z,4.85
2022-12-06T12:29:16.466Z,5.01
2022-12-06T12:31:58.737Z,4.90
2022-12-06T12:34:30.714Z,4.86
2022-12-06T12:37:03.470Z,5.07
2022-12-06T12:39:44.696Z,5.02
2022-12-06T12:42:36.551Z,4.97
2022-12-06T12:45:05.542Z,4.88
2022-12-06T12:47:32.948Z,4.93
2022-12-06T12:50:13.077Z,5.02
2022-12-06T12:52:42.410Z,5.09
2022-12-06T12:55:19.786Z,5.09
2022-12-06T12:57:52.048Z,5.16
2022-12-06T13:00:24.306Z,4.98
2022-12-06T13:02:57.530Z,5.04
2022-12-06T13:05:40.620Z,5.10
2022-12-06T13:08:21.459Z,5.22
2022-12-06T13:10:58.440Z,5.20
2022-12-06T13:13:44.638Z,5.28
2022-12-06T13:16:23.719Z,5.33
2022-12-06T13:18:54.250Z,5.16
2022-12-06T13:21:25.775Z,5.11
2022-12-06T13:24:05.994Z,5.15
2022-12-06T13:26:37.006Z,5.16
2022-12-06T13:29:19.463Z,5.18
2022-12-06T13:31:49.684Z,5.30
2022-12-06T13:34:39.910Z,5.22
2022-12-06T13:37:29.237Z,4.95
2022-12-06T13:39:56.507Z,4.81
2022-12-06T13:42:41.923Z,4.79
2022-12-06T13:45:41.861Z,4.87
2022-12-06T13:48:23.691Z,5.00
2022-12-06T13:50:59.717Z,4.95
2022-12-06T13:53:29.406Z,4.96
2022-12-06T13:56:24.193Z,4.91
2022-12-06T13:58:56.421Z,5.07
2022-12-06T14:01:36.870Z,5.10
2022-12-06T14:06:53.650Z,5.03
2022-12-06T14:09:21.132Z,5.08
2022-12-06T14:11:47.899Z,5.12
2022-12-06T14:14:16.363Z,5.12
2022-12-06T14:16:59.072Z,5.17
2022-12-06T14:19:28.545Z,5.15
2022-12-06T14:21:58.258Z,5.11
2022-12-06T14:24:31.448Z,4.97
2022-12-06T14:27:05.057Z,5.01
2022-12-06T14:29:32.180Z,4.98
2022-12-06T14:31:58.828Z,5.04
2022-12-06T14:34:28.742Z,5.07
2022-12-06T14:36:56.016Z,5.09
2022-12-06T14:39:25.920Z,5.02
2022-12-06T14:42:17.114Z,5.05
2022-12-06T14:44:49.242Z,5.05
2022-12-06T14:47:18.179Z,5.09
2022-12-06T14:50:03.852Z,5.10
2022-12-06T14:52:31.807Z,5.16
2022-12-06T14:55:17.662Z,5.15
2022-12-06T14:57:51.165Z,5.11
2022-12-06T15:00:27.538Z,5.05
2022-12-06T15:03:03.153Z,4.88
2022-12-06T15:05:50.319Z,4.90
2022-12-06T15:08:37.282Z,4.91
2022-12-06T15:11:09.753Z,4.79
2022-12-06T15:13:36.831Z,4.80
2022-12-06T15:16:08.083Z,4.79
2022-12-06T15:18:40.612Z,4.89
2022-12-06T15:21:15.494Z,4.83
2022-12-06T15:23:56.829Z,4.89
2022-12-06T15:26:24.938Z,4.91
2022-12-06T15:28:51.974Z,4.77
2022-12-06T15:31:27.654Z,4.83
2022-12-06T15:33:55.561Z,4.95
2022-12-06T15:36:27.621Z,4.88
2022-12-06T15:38:54.494Z,4.98
2022-12-06T15:41:26.710Z,5.00
2022-12-06T15:43:54.528Z,5.06
2022-12-06T15:46:23.646Z,5.02
2022-12-06T15:48:52.007Z,4.94
2022-12-06T15:51:21.662Z,4.82
2022-12-06T15:53:50.176Z,4.95
2022-12-06T15:56:19.958Z,4.96
2022-12-06T15:58:47.255Z,5.01
2022-12-06T16:01:23.457Z,5.00
2022-12-06T16:03:51.750Z,5.03
2022-12-06T16:06:19.487Z,5.02
2022-12-06T16:08:46.189Z,4.99
2022-12-06T16:11:15.881Z,4.96
2022-12-06T16:13:43.223Z,5.00
2022-12-06T16:16:10.193Z,4.98
2022-12-06T16:18:36.860Z,4.98
2022-12-06T16:21:04.317Z,4.97
2022-12-06T16:26:41.660Z,4.92
2022-12-06T16:29:12.158Z,4.94
2022-12-06T16:31:41.306Z,4.92
2022-12-06T16:34:08.331Z,4.80
2022-12-06T16:36:35.095Z,4.73
2022-12-06T16:39:05.131Z,4.80
2022-12-06T16:41:35.888Z,4.69
2022-12-06T16:44:02.970Z,4.81
2022-12-06T16:46:31.692Z,4.80
2022-12-06T16:49:43.630Z,4.82
2022-12-06T16:51:53.965Z,4.72
2022-12-06T16:54:20.669Z,4.73
2022-12-06T16:56:47.226Z,4.77
2022-12-06T16:59:16.385Z,4.68
2022-12-06T17:01:48.446Z,4.74
2022-12-06T17:04:15.473Z,4.79
2022-12-06T17:06:42.021Z,4.78
2022-12-06T17:09:10.624Z,4.62
2022-12-06T17:11:55.669Z,4.58
2022-12-06T17:14:25.645Z,4.58
2022-12-06T17:16:53.231Z,4.61
2022-12-06T17:19:22.145Z,4.58
2022-12-06T17:21:51.330Z,4.58
2022-12-06T17:24:20.785Z,4.58
2022-12-06T17:26:47.843Z,4.67
2022-12-06T17:29:14.429Z,4.61
2022-12-06T17:31:41.143Z,4.51
2022-12-06T17:34:09.968Z,4.56
2022-12-06T17:36:36.449Z,4.57
2022-12-06T17:39:07.110Z,4.57
2022-12-06T17:41:52.747Z,4.62
2022-12-06T17:44:19.750Z,4.55
2022-12-06T17:46:46.934Z,4.57
2022-12-06T17:49:19.465Z,4.57
2022-12-06T17:51:46.591Z,4.62
2022-12-06T17:54:14.302Z,4.65
2022-12-06T17:56:44.126Z,4.59
2022-12-06T17:59:14.468Z,4.55
2022-12-06T18:04:29.565Z,4.58
2022-12-06T18:06:57.273Z,4.55
2022-12-06T18:09:24.432Z,4.59
2022-12-06T18:11:51.519Z,4.35
2022-12-06T18:14:18.866Z,4.36
2022-12-06T18:16:48.058Z,4.44
2022-12-06T18:19:20.686Z,4.39
2022-12-06T18:21:47.494Z,4.47
2022-12-06T18:24:21.925Z,4.39
2022-12-06T18:26:51.110Z,4.35
2022-12-06T18:29:23.004Z,4.31
2022-12-06T18:31:51.871Z,4.38
2022-12-06T18:34:18.936Z,4.34
2022-12-06T18:36:46.877Z,4.42
2022-12-06T18:39:16.335Z,4.47
2022-12-06T18:41:44.164Z,4.53
2022-12-06T18:44:11.890Z,4.55
2022-12-06T18:46:39.448Z,4.55
2022-12-06T18:49:06.830Z,4.57
2022-12-06T18:51:35.809Z,4.50
2022-12-06T18:54:04.800Z,4.56
2022-12-06T18:56:33.011Z,4.57
2022-12-06T18:59:01.773Z,4.59
2022-12-06T19:01:30.617Z,4.53
2022-12-06T19:04:00.456Z,4.51
2022-12-06T19:06:29.679Z,4.57
2022-12-06T19:09:01.024Z,4.59
2022-12-06T19:11:27.578Z,4.58
2022-12-06T19:13:56.338Z,4.60
2022-12-06T19:16:29.964Z,4.56
2022-12-06T19:18:58.699Z,4.60
2022-12-06T19:21:26.460Z,4.59
2022-12-06T19:23:57.129Z,4.51
2022-12-06T19:26:25.697Z,4.61
2022-12-06T19:28:53.768Z,4.47
2022-12-06T19:31:22.838Z,4.39
2022-12-06T19:33:51.308Z,4.58
2022-12-06T19:36:21.191Z,4.57
2022-12-06T19:38:48.006Z,4.53
2022-12-06T19:41:17.675Z,4.38
2022-12-06T19:44:02.787Z,4.35
2022-12-06T19:46:31.120Z,4.35
2022-12-06T19:49:00.227Z,4.26
2022-12-06T19:51:29.161Z,4.33
2022-12-06T19:53:58.142Z,4.38
2022-12-06T19:56:25.741Z,4.40
2022-12-06T19:58:54.487Z,4.42
2022-12-06T20:01:25.023Z,4.53
2022-12-06T20:03:54.317Z,4.48
2022-12-06T20:06:23.358Z,4.52
2022-12-06T20:08:51.738Z,4.48
2022-12-06T20:11:39.844Z,4.51
2022-12-06T20:14:10.239Z,4.52
2022-12-06T20:16:37.468Z,4.42
2022-12-06T20:19:06.360Z,4.26
2022-12-06T20:21:33.458Z,4.18
2022-12-06T20:24:00.826Z,4.20
2022-12-06T20:26:28.621Z,4.37
2022-12-06T20:28:55.521Z,4.47
2022-12-06T20:31:25.795Z,4.44
2022-12-06T20:33:55.676Z,4.43
2022-12-06T20:36:23.667Z,4.39
2022-12-06T20:38:55.152Z,4.35
2022-12-06T20:41:24.026Z,4.41
2022-12-06T20:43:51.699Z,4.42
2022-12-06T20:46:22.971Z,4.43
2022-12-06T20:48:49.509Z,4.40
2022-12-06T20:51:19.204Z,4.38
2022-12-06T20:53:47.501Z,4.43
2022-12-06T20:56:18.180Z,4.40
2022-12-06T20:58:52.026Z,4.45
2022-12-06T21:01:21.573Z,4.40
2022-12-06T21:03:51.153Z,4.31
2022-12-06T21:06:19.322Z,4.43
2022-12-06T21:08:46.780Z,4.40
2022-12-06T21:11:22.494Z,4.39
2022-12-06T21:13:53.875Z,4.39
2022-12-06T21:16:23.952Z,4.44
2022-12-06T21:18:55.023Z,4.36
2022-12-06T21:21:24.044Z,4.41
2022-12-06T21:23:51.030Z,4.44
2022-12-06T21:26:17.567Z,4.43
2022-12-06T21:28:44.077Z,4.43
2022-12-06T21:31:10.799Z,4.43
2022-12-06T21:33:37.360Z,4.34
2022-12-06T21:36:06.867Z,4.37
2022-12-06T21:38:34.404Z,4.36
2022-12-06T21:41:10.542Z,4.30
2022-12-06T21:43:37.261Z,4.29
2022-12-06T21:46:05.620Z,4.24
2022-12-06T21:48:32.127Z,4.36
2022-12-06T21:51:07.857Z,4.35
2022-12-06T21:53:34.982Z,4.34
2022-12-06T21:56:29.565Z,4.38
2022-12-06T21:58:56.434Z,4.29
2022-12-06T22:01:28.131Z,4.32
2022-12-06T22:03:57.518Z,4.29
2022-12-06T22:06:24.131Z,4.14
2022-12-06T22:09:00.496Z,4.13
2022-12-06T22:11:27.704Z,3.99
2022-12-06T22:13:54.336Z,4.07
2022-12-06T22:16:21.148Z,4.09
2022-12-06T22:18:47.594Z,4.01
2022-12-06T22:21:18.102Z,4.11
2022-12-06T22:23:45.305Z,4.16
2022-12-06T22:26:17.895Z,4.12
2022-12-06T22:28:44.698Z,4.07
2022-12-06T22:31:13.409Z,4.00
2022-12-06T22:33:40.043Z,3.99
2022-12-06T22:36:07.407Z,4.02
2022-12-06T22:38:33.973Z,4.01
2022-12-06T22:41:01.646Z,4.06
2022-12-06T22:43:29.167Z,4.08
2022-12-06T22:45:55.808Z,4.06
2022-12-06T22:48:22.259Z,4.04
2022-12-06T22:50:48.888Z,4.08
2022-12-06T22:53:15.401Z,4.06
2022-12-06T22:55:42.900Z,4.01
2022-12-06T22:58:09.397Z,3.99
2022-12-06T23:00:35.782Z,3.98
2022-12-06T23:03:02.396Z,3.91
2022-12-06T23:05:28.831Z,3.93
2022-12-06T23:07:57.405Z,3.81
2022-12-06T23:10:23.933Z,3.81
2022-12-06T23:12:50.691Z,3.86
2022-12-06T23:15:17.720Z,3.86
2022-12-06T23:17:44.132Z,3.93
2022-12-06T23:20:11.028Z,3.99
2022-12-06T23:22:37.520Z,3.92
2022-12-06T23:25:04.220Z,3.94
2022-12-06T23:27:30.741Z,3.97
2022-12-06T23:29:57.205Z,3.80
2022-12-06T23:32:24.288Z,3.88
2022-12-06T23:34:51.813Z,3.78
2022-12-06T23:37:18.562Z,3.84
2022-12-06T23:39:45.447Z,3.81
2022-12-06T23:42:12.089Z,3.90
2022-12-06T23:44:39.866Z,3.86
2022-12-06T23:47:06.667Z,3.94
2022-12-06T23:49:33.378Z,3.93
2022-12-06T23:51:59.813Z,3.94
2022-12-06T23:54:26.285Z,3.92
2022-12-06T23:56:52.809Z,3.91
2022-12-06T23:59:19.637Z,3.93
